Time;durP1;ratioP1;P1;durP2;ratioP2;P2;SDS_P1;SDS_P2;PMS_P1;PMS_P2;Temp;Humidity;BMP_temperature;BMP_pressure;BME280_temperature;BME280_humidity;BME280_pressure;Samples;Min_cycle;Max_cycle;Signal;HPM_P1;HPM_P2
2021/05/20 00:01:46;;;;;;;2.50;1.23;;;20.50;43.60;;;;;;5008389;28;20200;-44
2021/05/20 00:04:12;;;;;;;1.20;1.10;;;20.50;44.10;;;;;;5009488;28;20205;-45
2021/05/20 00:06:38;;;;;;;4.23;1.63;;;20.50;44.40;;;;;;5009342;28;20818;-47
2021/05/20 00:09:05;;;;;;;1.50;1.40;;;20.50;44.00;;;;;;5008371;28;20194;-46
2021/05/20 00:11:31;;;;;;;1.97;1.70;;;20.40;43.80;;;;;;4998228;28;20607;-44
2021/05/20 00:13:57;;;;;;;1.73;1.63;;;20.40;43.80;;;;;;5008503;28;20799;-45
2021/05/20 00:16:23;;;;;;;3.97;1.30;;;20.30;43.90;;;;;;5003083;28;20451;-44
2021/05/20 00:18:49;;;;;;;1.57;1.47;;;20.30;43.80;;;;;;4995614;28;20443;-44
2021/05/20 00:21:14;;;;;;;1.83;1.70;;;20.30;44.60;;;;;;5006891;28;20595;-45
2021/05/20 00:23:40;;;;;;;1.47;1.30;;;20.30;44.40;;;;;;5010371;28;20201;-45
2021/05/20 00:26:06;;;;;;;2.90;1.30;;;20.30;43.60;;;;;;5005959;28;20240;-45
2021/05/20 00:28:31;;;;;;;1.40;1.27;;;20.30;44.00;;;;;;5004563;28;20194;-48
2021/05/20 00:30:57;;;;;;;1.73;1.30;;;20.30;44.30;;;;;;5006513;28;20602;-44
2021/05/20 00:33:23;;;;;;;1.77;1.67;;;20.20;44.40;;;;;;5005943;28;20590;-45
2021/05/20 00:35:48;;;;;;;1.70;1.60;;;20.30;44.60;;;;;;5009745;28;20194;-45
2021/05/20 00:38:14;;;;;;;3.47;1.50;;;20.30;44.50;;;;;;5009432;28;20313;-45
2021/05/20 00:40:40;;;;;;;3.43;2.03;;;20.30;44.40;;;;;;5006121;28;20222;-50
2021/05/20 00:43:05;;;;;;;2.90;1.90;;;20.30;44.20;;;;;;5008221;28;20280;-50
2021/05/20 00:45:31;;;;;;;2.30;2.10;;;20.30;44.00;;;;;;5007168;28;20194;-47
2021/05/20 00:47:57;;;;;;;1.90;1.40;;;20.30;43.80;;;;;;5009470;28;20198;-44
2021/05/20 00:50:22;;;;;;;2.30;1.67;;;20.10;44.70;;;;;;5006156;28;20580;-46
2021/05/20 00:52:48;;;;;;;1.63;1.53;;;20.10;44.60;;;;;;5010344;28;20197;-50
2021/05/20 00:55:17;;;;;;;3.40;2.00;;;20.10;44.80;;;;;;4997271;28;20191;-50
2021/05/20 00:57:44;;;;;;;2.70;2.27;;;19.90;44.20;;;;;;5005432;28;20650;-49
2021/05/20 01:00:12;;;;;;;1.83;1.73;;;19.70;44.40;;;;;;5010997;28;21055;-49
2021/05/20 01:02:39;;;;;;;2.57;1.30;;;19.40;44.80;;;;;;5004026;28;20456;-48
2021/05/20 01:05:07;;;;;;;1.93;1.80;;;19.20;45.30;;;;;;5007292;28;20472;-50
2021/05/20 01:07:33;;;;;;;1.67;1.57;;;19.00;45.80;;;;;;5008469;28;21136;-49
2021/05/20 01:09:59;;;;;;;1.40;1.30;;;18.80;46.30;;;;;;5012708;28;20457;-51
2021/05/20 01:12:25;;;;;;;2.60;1.53;;;18.60;46.80;;;;;;5009309;28;20441;-48
2021/05/20 01:14:51;;;;;;;1.63;1.40;;;18.50;47.20;;;;;;5006416;28;20201;-48
2021/05/20 01:17:16;;;;;;;1.73;1.50;;;18.30;47.50;;;;;;5001640;28;20512;-49
2021/05/20 01:19:45;;;;;;;3.20;1.70;;;18.20;47.90;;;;;;5011920;28;20320;-50
2021/05/20 01:22:11;;;;;;;2.17;1.40;;;18.10;48.20;;;;;;5011661;28;20200;-49
2021/05/20 01:24:37;;;;;;;5.00;1.30;;;18.00;48.80;;;;;;5012273;28;20532;-50
2021/05/20 01:27:05;;;;;;;3.30;1.60;;;18.10;49.90;;;;;;5001979;28;20947;-48
2021/05/20 01:29:31;;;;;;;1.30;1.20;;;18.30;49.70;;;;;;5009645;28;20441;-49
2021/05/20 01:31:57;;;;;;;1.70;1.60;;;18.50;48.70;;;;;;5011533;28;20498;-48
2021/05/20 01:34:23;;;;;;;1.33;1.20;;;18.60;48.40;;;;;;5005329;28;20449;-44
2021/05/20 01:36:49;;;;;;;1.80;1.50;;;18.80;48.60;;;;;;5000999;28;20858;-48
2021/05/20 01:39:14;;;;;;;1.90;1.20;;;18.90;48.60;;;;;;5009339;28;20276;-45
2021/05/20 01:41:40;;;;;;;1.43;1.17;;;19.10;47.80;;;;;;5010676;28;20248;-45
2021/05/20 01:44:06;;;;;;;2.80;1.30;;;19.20;47.40;;;;;;5008832;28;20194;-45
2021/05/20 01:46:31;;;;;;;2.47;1.53;;;19.30;47.40;;;;;;5002540;28;20186;-46
2021/05/20 01:48:57;;;;;;;5.10;2.00;;;19.40;47.50;;;;;;5006572;28;20227;-44
2021/05/20 01:51:23;;;;;;;1.40;1.30;;;19.40;47.20;;;;;;5006224;28;20691;-45
2021/05/20 01:53:53;;;;;;;1.47;1.37;;;19.40;46.10;;;;;;5004388;28;20194;-44
2021/05/20 01:56:20;;;;;;;1.60;1.50;;;19.40;46.20;;;;;;5012657;28;20797;-45
2021/05/20 01:58:46;;;;;;;1.37;1.20;;;19.40;46.70;;;;;;5011324;28;20470;-48
2021/05/20 02:01:12;;;;;;;1.53;1.40;;;19.40;47.10;;;;;;5008981;28;20488;-45
2021/05/20 02:03:38;;;;;;;1.30;1.20;;;19.50;47.10;;;;;;5000426;28;20511;-45
2021/05/20 02:06:05;;;;;;;1.67;1.57;;;19.60;46.90;;;;;;4993425;28;20918;-44
2021/05/20 02:08:32;;;;;;;2.03;1.43;;;19.60;46.50;;;;;;5002791;28;20194;-44
2021/05/20 02:10:58;;;;;;;1.50;1.40;;;19.70;46.10;;;;;;5008930;28;20956;-48
2021/05/20 02:13:24;;;;;;;1.93;1.33;;;19.80;46.00;;;;;;5007056;28;20470;-45
2021/05/20 02:15:50;;;;;;;2.03;1.30;;;19.80;46.00;;;;;;4999163;28;20425;-45
2021/05/20 02:18:16;;;;;;;1.70;1.40;;;19.80;46.20;;;;;;5009928;28;20445;-45
2021/05/20 02:20:44;;;;;;;3.57;1.50;;;19.80;46.00;;;;;;5009661;28;20500;-46
2021/05/20 02:23:09;;;;;;;1.33;1.23;;;19.90;45.90;;;;;;5010295;28;20205;-44
2021/05/20 02:25:35;;;;;;;1.43;1.33;;;19.90;46.10;;;;;;5009800;28;20448;-45
2021/05/20 02:28:01;;;;;;;1.80;1.60;;;19.90;45.90;;;;;;4993489;28;20596;-45
2021/05/20 02:30:27;;;;;;;1.97;1.87;;;19.90;45.80;;;;;;4999999;28;20221;-45
2021/05/20 02:32:53;;;;;;;1.80;1.70;;;19.80;45.60;;;;;;5008355;28;20601;-44
2021/05/20 02:35:19;;;;;;;2.70;1.43;;;19.80;45.90;;;;;;5007987;28;20603;-47
2021/05/20 02:37:46;;;;;;;1.50;1.40;;;19.90;45.80;;;;;;5010741;28;20316;-45
2021/05/20 02:40:12;;;;;;;1.30;1.10;;;19.90;45.90;;;;;;5009013;28;21069;-45
2021/05/20 02:42:38;;;;;;;1.60;1.40;;;19.90;45.70;;;;;;5008293;28;20860;-45
2021/05/20 02:45:07;;;;;;;2.30;1.27;;;19.90;45.30;;;;;;5009625;28;20575;-45
2021/05/20 02:47:32;;;;;;;1.00;0.90;;;19.90;45.50;;;;;;5009141;28;20453;-47
2021/05/20 02:49:58;;;;;;;1.07;0.97;;;19.80;45.60;;;;;;5011133;28;20972;-44
2021/05/20 02:52:23;;;;;;;1.53;1.40;;;19.80;45.40;;;;;;5007631;28;20205;-45
2021/05/20 02:54:49;;;;;;;2.30;1.37;;;19.80;44.90;;;;;;5007500;28;20197;-44
2021/05/20 02:57:15;;;;;;;6.50;1.40;;;19.70;45.20;;;;;;5008750;28;20205;-51
2021/05/20 02:59:40;;;;;;;2.00;1.10;;;19.70;45.40;;;;;;5006628;28;20589;-44
2021/05/20 03:02:09;;;;;;;1.87;1.20;;;19.80;45.50;;;;;;5007780;28;20260;-45
2021/05/20 03:04:36;;;;;;;0.90;0.80;;;19.70;45.40;;;;;;5009288;28;20201;-48
2021/05/20 03:07:04;;;;;;;1.20;1.10;;;19.80;45.40;;;;;;5003861;28;20443;-47
2021/05/20 03:09:30;;;;;;;1.10;1.00;;;19.70;45.20;;;;;;5001740;28;20537;-45
2021/05/20 03:11:58;;;;;;;1.77;1.10;;;19.80;45.20;;;;;;5002484;28;20491;-46
2021/05/20 03:14:25;;;;;;;5.80;1.50;;;19.80;45.60;;;;;;5003296;28;20452;-44
2021/05/20 03:16:51;;;;;;;1.40;1.30;;;19.80;45.30;;;;;;5001497;28;20453;-46
2021/05/20 03:19:17;;;;;;;1.80;1.40;;;19.80;45.50;;;;;;4996627;28;21077;-45
2021/05/20 03:21:43;;;;;;;3.03;1.73;;;19.80;45.40;;;;;;5001345;28;20213;-45
2021/05/20 03:24:09;;;;;;;2.70;1.50;;;19.80;45.10;;;;;;5006154;28;20441;-44
2021/05/20 03:26:35;;;;;;;1.70;1.40;;;19.90;45.00;;;;;;5002149;28;20214;-45
2021/05/20 03:29:00;;;;;;;2.13;1.43;;;19.80;44.80;;;;;;5005283;28;20448;-44
2021/05/20 03:31:26;;;;;;;2.00;1.80;;;19.70;44.50;;;;;;5001011;28;20703;-45
2021/05/20 03:33:52;;;;;;;2.30;1.20;;;19.70;45.60;;;;;;5007295;28;20580;-49
2021/05/20 03:36:18;;;;;;;3.73;1.73;;;19.70;45.70;;;;;;5009488;28;20433;-50
2021/05/20 03:38:43;;;;;;;1.77;1.33;;;19.70;45.60;;;;;;5005658;28;20367;-46
2021/05/20 03:41:09;;;;;;;1.70;1.30;;;19.70;45.60;;;;;;5009257;28;20232;-46
2021/05/20 03:43:39;;;;;;;3.50;1.30;;;19.70;45.60;;;;;;5001687;28;20668;-44
2021/05/20 03:46:06;;;;;;;1.20;1.00;;;19.70;45.10;;;;;;5007397;28;20740;-44
2021/05/20 03:48:32;;;;;;;1.30;1.20;;;19.60;44.60;;;;;;5008386;28;20445;-44
2021/05/20 03:50:58;;;;;;;1.20;1.10;;;19.40;44.80;;;;;;5007681;28;20457;-44
2021/05/20 03:53:29;;;;;;;3.53;1.03;;;19.30;44.90;;;;;;5006532;28;20607;-45
2021/05/20 03:55:56;;;;;;;2.40;1.30;;;19.10;44.90;;;;;;5010186;28;20449;-45
2021/05/20 03:58:22;;;;;;;1.20;1.10;;;19.00;45.20;;;;;;5006229;28;20434;-44
2021/05/20 04:00:47;;;;;;;2.27;1.27;;;18.80;45.60;;;;;;5009607;28;20627;-45
2021/05/20 04:03:27;;;;;;;4.00;1.20;;;18.70;46.40;;;;;;5002534;28;20201;-44
2021/05/20 04:05:54;;;;;;;1.43;1.00;;;18.80;46.70;;;;;;5009090;28;20185;-45
2021/05/20 04:08:20;;;;;;;0.80;0.80;;;18.80;46.80;;;;;;5009106;28;20490;-44
2021/05/20 04:10:46;;;;;;;1.10;1.00;;;18.80;46.20;;;;;;5008130;28;20924;-45
2021/05/20 04:13:13;;;;;;;4.10;1.00;;;18.80;46.20;;;;;;5006060;28;20449;-46
2021/05/20 04:15:38;;;;;;;1.10;1.10;;;18.90;46.60;;;;;;5001080;28;20448;-47
2021/05/20 04:18:04;;;;;;;1.30;1.10;;;18.90;46.00;;;;;;5008565;28;20915;-45
2021/05/20 04:20:30;;;;;;;1.70;1.00;;;18.90;45.40;;;;;;5009551;28;20240;-45
2021/05/20 04:22:56;;;;;;;2.87;1.20;;;18.80;45.40;;;;;;5009060;28;20436;-45
2021/05/20 04:25:21;;;;;;;1.10;1.00;;;18.60;45.60;;;;;;5007249;28;20377;-45
2021/05/20 04:27:47;;;;;;;1.63;1.30;;;18.50;46.10;;;;;;5008448;28;20189;-45
2021/05/20 04:30:13;;;;;;;1.13;1.03;;;18.30;46.30;;;;;;5007959;28;20200;-45
2021/05/20 04:32:38;;;;;;;1.37;1.07;;;18.20;46.50;;;;;;5011625;28;20285;-45
2021/05/20 04:35:05;;;;;;;1.17;1.10;;;18.00;47.00;;;;;;5011181;28;20566;-46
2021/05/20 04:37:30;;;;;;;1.13;1.07;;;17.90;47.20;;;;;;5006917;28;20602;-46
2021/05/20 04:39:56;;;;;;;1.67;1.20;;;17.80;47.70;;;;;;5009952;28;20480;-45
2021/05/20 04:42:21;;;;;;;1.00;0.90;;;17.70;47.80;;;;;;5011546;28;20182;-47
2021/05/20 04:44:47;;;;;;;2.27;1.40;;;17.60;47.80;;;;;;5010495;28;20268;-47
2021/05/20 04:47:12;;;;;;;0.80;0.80;;;17.60;48.00;;;;;;5009217;28;20194;-46
2021/05/20 04:49:38;;;;;;;2.57;1.00;;;17.60;48.20;;;;;;5009270;28;20252;-46
2021/05/20 04:52:04;;;;;;;1.20;1.10;;;17.50;48.20;;;;;;5012316;28;20194;-46
2021/05/20 04:54:29;;;;;;;4.87;1.90;;;17.50;48.40;;;;;;5007113;28;20221;-45
2021/05/20 04:56:55;;;;;;;2.00;1.80;;;17.40;48.60;;;;;;5007464;28;20194;-45
2021/05/20 04:59:20;;;;;;;2.30;1.40;;;17.40;48.70;;;;;;5013131;28;20563;-46
2021/05/20 05:01:46;;;;;;;1.73;1.30;;;17.40;48.70;;;;;;5010280;28;20194;-48
2021/05/20 05:04:11;;;;;;;1.73;1.40;;;17.30;48.80;;;;;;5010709;28;20197;-45
2021/05/20 05:06:37;;;;;;;1.50;1.40;;;17.40;49.00;;;;;;5007866;28;20198;-49
2021/05/20 05:09:03;;;;;;;1.40;1.07;;;17.40;49.00;;;;;;5011858;28;20190;-46
2021/05/20 05:11:29;;;;;;;7.93;1.47;;;17.40;49.00;;;;;;5006887;28;20207;-46
2021/05/20 05:13:54;;;;;;;3.57;1.07;;;17.40;52.60;;;;;;5008005;28;20456;-45
2021/05/20 05:16:20;;;;;;;1.43;1.00;;;17.60;52.60;;;;;;5008902;28;20204;-45
2021/05/20 05:18:46;;;;;;;1.50;1.10;;;18.10;50.30;;;;;;5002734;28;20236;-46
2021/05/20 05:21:11;;;;;;;1.17;1.10;;;18.40;48.40;;;;;;5002475;28;20229;-45
2021/05/20 05:23:38;;;;;;;1.10;1.00;;;18.70;47.40;;;;;;5011781;28;20226;-49
2021/05/20 05:26:04;;;;;;;2.30;1.20;;;18.90;47.00;;;;;;5003177;28;20204;-48
2021/05/20 05:28:29;;;;;;;1.57;1.00;;;19.00;47.70;;;;;;5008838;28;20444;-45
2021/05/20 05:30:55;;;;;;;1.67;1.27;;;19.20;47.10;;;;;;5008064;28;20193;-47
2021/05/20 05:33:22;;;;;;;3.23;1.00;;;19.40;46.50;;;;;;5001784;28;20202;-45
2021/05/20 05:35:48;;;;;;;2.97;1.17;;;19.50;45.90;;;;;;5009071;28;20190;-45
2021/05/20 05:38:14;;;;;;;1.43;1.10;;;19.50;45.50;;;;;;5009934;28;20534;-46
2021/05/20 05:40:40;;;;;;;1.83;0.90;;;19.60;45.60;;;;;;5010961;28;20488;-45
2021/05/20 05:43:05;;;;;;;0.90;0.90;;;19.70;45.50;;;;;;5011805;28;20256;-45
2021/05/20 05:45:31;;;;;;;3.60;1.17;;;19.80;45.40;;;;;;5010967;28;20546;-46
2021/05/20 05:47:57;;;;;;;0.87;0.87;;;19.80;45.20;;;;;;5009967;28;20277;-45
2021/05/20 05:50:22;;;;;;;1.10;1.00;;;19.80;45.10;;;;;;5012940;28;20552;-46
2021/05/20 05:52:48;;;;;;;2.20;1.10;;;19.60;45.00;;;;;;5000856;28;20240;-45
2021/05/20 05:55:14;;;;;;;1.30;1.20;;;19.60;45.20;;;;;;5012949;28;20590;-45
2021/05/20 05:57:39;;;;;;;1.20;1.10;;;19.60;45.20;;;;;;5011542;28;20725;-46
2021/05/20 06:00:06;;;;;;;2.53;1.40;;;19.60;45.20;;;;;;5012225;28;20210;-45
2021/05/20 06:02:32;;;;;;;0.63;0.63;;;19.60;45.30;;;;;;5000032;28;20198;-46
2021/05/20 06:04:59;;;;;;;1.03;0.93;;;19.60;45.20;;;;;;5011729;28;20448;-46
2021/05/20 06:07:24;;;;;;;1.23;1.13;;;19.60;45.30;;;;;;5012279;28;20475;-45
2021/05/20 06:09:50;;;;;;;1.10;1.00;;;19.60;45.30;;;;;;5006117;28;20445;-45
2021/05/20 06:12:16;;;;;;;1.30;1.20;;;19.70;45.30;;;;;;4994356;28;20662;-46
2021/05/20 06:14:42;;;;;;;1.57;0.97;;;19.70;45.30;;;;;;4998231;28;20203;-44
2021/05/20 06:17:08;;;;;;;1.43;0.90;;;19.60;45.40;;;;;;5011370;28;20950;-47
2021/05/20 06:19:33;;;;;;;1.63;1.03;;;19.60;45.40;;;;;;5010585;28;20221;-45
2021/05/20 06:21:59;;;;;;;3.07;1.10;;;19.60;45.50;;;;;;5011991;28;20457;-45
2021/05/20 06:24:25;;;;;;;1.83;1.13;;;19.60;45.60;;;;;;5007552;28;20202;-45
2021/05/20 06:26:50;;;;;;;1.20;1.10;;;19.60;45.60;;;;;;5011312;28;20190;-46
2021/05/20 06:29:16;;;;;;;1.23;0.90;;;19.60;45.70;;;;;;5008420;28;20190;-47
2021/05/20 06:31:42;;;;;;;1.00;1.00;;;19.60;45.70;;;;;;5010836;28;20549;-49
2021/05/20 06:34:07;;;;;;;2.13;1.60;;;19.60;45.70;;;;;;4997499;28;20202;-46
2021/05/20 06:36:33;;;;;;;0.97;0.97;;;19.50;46.00;;;;;;5001983;28;20186;-46
2021/05/20 06:38:58;;;;;;;1.80;1.33;;;19.50;45.90;;;;;;5008190;28;20234;-45
2021/05/20 06:41:24;;;;;;;1.23;1.13;;;19.50;45.70;;;;;;4998486;28;20574;-45
2021/05/20 06:43:50;;;;;;;0.83;0.83;;;19.60;45.80;;;;;;5005109;28;20194;-45
2021/05/20 06:46:15;;;;;;;1.20;1.10;;;19.70;47.50;;;;;;5000895;28;20608;-45
2021/05/20 06:48:41;;;;;;;1.10;1.00;;;19.90;46.70;;;;;;5001609;28;20193;-46
2021/05/20 06:51:07;;;;;;;2.53;1.10;;;20.00;45.60;;;;;;5005921;28;20210;-44
2021/05/20 06:53:35;;;;;;;6.90;1.10;;;20.10;45.50;;;;;;5006264;28;20194;-45
2021/05/20 06:56:05;;;;;;;1.53;1.03;;;20.10;46.10;;;;;;5010020;28;20696;-46
2021/05/20 07:01:15;;;;;;;2.93;1.10;;;20.10;44.60;;;;;;5009216;28;20531;-45
2021/05/20 07:03:42;;;;;;;7.13;1.83;;;19.80;46.20;;;;;;5002781;28;20485;-45
2021/05/20 07:06:08;;;;;;;1.10;1.10;;;19.80;46.00;;;;;;5008633;28;20276;-44
2021/05/20 07:08:34;;;;;;;1.10;1.03;;;19.90;45.80;;;;;;5008839;28;20494;-44
2021/05/20 07:11:00;;;;;;;2.30;1.27;;;19.90;45.70;;;;;;5006069;28;20433;-44
2021/05/20 07:13:25;;;;;;;1.93;1.00;;;19.30;45.70;;;;;;5009996;28;20194;-44
2021/05/20 07:15:51;;;;;;;1.10;0.87;;;19.10;46.30;;;;;;5004732;28;20297;-44
2021/05/20 07:18:17;;;;;;;1.07;0.90;;;18.90;46.10;;;;;;5014389;28;20201;-44
2021/05/20 07:20:43;;;;;;;2.60;1.10;;;18.80;46.80;;;;;;5019978;28;20589;-46
2021/05/20 07:23:09;;;;;;;1.17;0.90;;;18.80;47.30;;;;;;5008081;28;20454;-44
2021/05/20 07:25:35;;;;;;;1.93;1.20;;;18.90;47.20;;;;;;5010961;28;20441;-44
2021/05/20 07:28:01;;;;;;;1.13;1.03;;;18.80;47.30;;;;;;5002371;28;21134;-44
2021/05/20 07:30:26;;;;;;;1.87;1.03;;;18.40;47.60;;;;;;5003181;28;20663;-45
2021/05/20 07:32:52;;;;;;;1.30;1.20;;;18.40;48.20;;;;;;5007831;28;20230;-44
2021/05/20 07:35:18;;;;;;;1.30;1.20;;;18.50;48.00;;;;;;4994338;28;20862;-44
2021/05/20 07:37:43;;;;;;;1.40;1.30;;;18.60;47.70;;;;;;5002630;28;20241;-44
2021/05/20 07:40:12;;;;;;;1.23;1.13;;;18.60;47.90;;;;;;5008277;28;20275;-44
2021/05/20 07:42:38;;;;;;;1.67;1.20;;;18.70;47.80;;;;;;5006482;28;20694;-44
2021/05/20 07:45:05;;;;;;;1.60;1.00;;;18.70;47.80;;;;;;4997760;28;20437;-45
2021/05/20 07:47:30;;;;;;;1.30;1.20;;;18.60;47.90;;;;;;5008380;28;20201;-48
2021/05/20 07:49:56;;;;;;;3.50;1.30;;;18.60;48.10;;;;;;5009232;28;20777;-43
2021/05/20 07:52:22;;;;;;;1.73;1.37;;;18.70;48.00;;;;;;5013483;28;20248;-44
2021/05/20 07:54:47;;;;;;;1.40;1.23;;;18.80;47.90;;;;;;5013692;28;20281;-43
2021/05/20 07:57:13;;;;;;;0.93;0.90;;;18.70;48.10;;;;;;5010805;28;20197;-44
2021/05/20 07:59:39;;;;;;;1.27;1.17;;;18.70;48.10;;;;;;5011551;28;20206;-43
2021/05/20 08:04:51;;;;;;;1.10;1.10;;;18.60;48.40;;;;;;5012942;28;20251;-44
2021/05/20 08:09:49;;;;;;;4.07;1.30;;;18.80;48.30;;;;;;5013651;28;20451;-43
2021/05/20 08:12:15;;;;;;;1.50;1.17;;;18.90;47.80;;;;;;5004077;28;21980;-43
2021/05/20 08:14:40;;;;;;;2.03;1.10;;;19.10;47.30;;;;;;5013648;28;20441;-45
2021/05/20 08:17:07;;;;;;;2.97;1.53;;;19.10;47.40;;;;;;5007866;28;20317;-44
2021/05/20 08:19:33;;;;;;;1.73;1.40;;;19.20;47.30;;;;;;5011796;28;20198;-44
2021/05/20 08:21:59;;;;;;;2.10;1.37;;;19.20;47.10;;;;;;5008485;28;20437;-45
2021/05/20 08:24:25;;;;;;;1.43;1.33;;;19.20;47.10;;;;;;5008409;28;20448;-44
2021/05/20 08:26:50;;;;;;;1.33;1.10;;;19.40;47.00;;;;;;5010211;28;20221;-44
2021/05/20 08:29:16;;;;;;;1.30;1.20;;;19.20;46.70;;;;;;5006972;28;20571;-44
2021/05/20 08:31:42;;;;;;;1.37;1.27;;;19.10;46.90;;;;;;5010369;28;20230;-44
2021/05/20 08:34:07;;;;;;;0.90;0.90;;;19.00;47.00;;;;;;5010670;28;20194;-43
2021/05/20 08:36:33;;;;;;;1.27;1.17;;;19.10;47.30;;;;;;5015875;28;20925;-43
2021/05/20 08:38:59;;;;;;;1.33;1.20;;;19.10;47.00;;;;;;5014683;28;20234;-45
2021/05/20 08:41:25;;;;;;;2.37;1.00;;;19.10;46.90;;;;;;5011998;28;20897;-45
2021/05/20 08:43:51;;;;;;;1.37;1.10;;;19.30;46.80;;;;;;5010143;28;20237;-44
2021/05/20 08:46:25;;;;;;;1.30;1.20;;;19.30;46.40;;;;;;5013538;28;20476;-46
2021/05/20 08:48:50;;;;;;;1.40;0.90;;;19.50;46.00;;;;;;5011450;28;20186;-45
2021/05/20 08:51:18;;;;;;;0.70;0.70;;;19.70;46.80;;;;;;5013486;28;20487;-44
2021/05/20 08:53:44;;;;;;;3.73;1.90;;;19.70;45.60;;;;;;5011472;28;20208;-44
2021/05/20 08:56:11;;;;;;;1.33;1.23;;;19.50;45.60;;;;;;5012773;28;20445;-45
2021/05/20 08:58:37;;;;;;;3.73;1.30;;;19.60;46.00;;;;;;5010556;28;20680;-43
2021/05/20 09:01:02;;;;;;;2.90;1.47;;;19.80;46.00;;;;;;5012412;28;20496;-43
2021/05/20 09:03:28;;;;;;;2.10;1.93;;;19.80;46.40;;;;;;5001622;28;20236;-44
2021/05/20 09:05:58;;;;;;;3.57;1.50;;;20.00;45.80;;;;;;5021843;28;20194;-45
2021/05/20 09:08:31;;;;;;;2.00;1.33;;;20.10;45.40;;;;;;5018298;28;20535;-43
2021/05/20 09:10:57;;;;;;;1.27;1.17;;;20.40;45.50;;;;;;5012799;28;20443;-44
2021/05/20 09:13:23;;;;;;;0.97;0.90;;;20.50;45.30;;;;;;5009287;28;20437;-43
2021/05/20 09:15:51;;;;;;;2.63;1.20;;;20.40;44.10;;;;;;5011943;28;20224;-45
2021/05/20 09:18:21;;;;;;;2.00;1.10;;;20.30;43.20;;;;;;5007284;28;20230;-47
2021/05/20 09:20:52;;;;;;;1.00;1.00;;;20.30;43.30;;;;;;5007906;28;20554;-43
2021/05/20 09:23:27;;;;;;;2.23;1.20;;;20.20;43.60;;;;;;5013614;28;20449;-43
2021/05/20 09:26:02;;;;;;;1.07;0.83;;;20.10;43.60;;;;;;5011292;28;20504;-43
2021/05/20 09:28:32;;;;;;;0.80;0.80;;;20.10;43.90;;;;;;5010936;28;20424;-47
2021/05/20 09:30:58;;;;;;;0.90;0.90;;;20.20;43.50;;;;;;5005625;28;20441;-44
2021/05/20 09:33:24;;;;;;;2.13;1.07;;;20.30;43.50;;;;;;5001461;28;20426;-44
2021/05/20 09:35:50;;;;;;;1.23;0.77;;;20.50;43.20;;;;;;5014378;28;20197;-44
2021/05/20 09:38:16;;;;;;;4.80;0.80;;;20.40;43.00;;;;;;5017562;28;20309;-43
2021/05/20 09:40:55;;;;;;;0.73;0.73;;;20.10;42.60;;;;;;5013200;28;20481;-44
2021/05/20 09:43:34;;;;;;;0.77;0.77;;;20.20;43.40;;;;;;5004953;28;20933;-43
2021/05/20 09:46:10;;;;;;;5.43;0.73;;;20.50;43.70;;;;;;5011558;28;20477;-43
2021/05/20 09:48:37;;;;;;;0.90;0.90;;;20.90;44.00;;;;;;5003721;28;20526;-44
2021/05/20 09:51:05;;;;;;;0.90;0.90;;;21.00;43.20;;;;;;5011592;28;20794;-43
2021/05/20 09:53:42;;;;;;;1.20;1.00;;;21.30;44.00;;;;;;5011559;28;20433;-44
2021/05/20 09:56:09;;;;;;;1.57;1.30;;;21.00;42.80;;;;;;5010982;28;20442;-44
2021/05/20 09:58:35;;;;;;;0.83;0.83;;;20.90;42.20;;;;;;5011962;28;20444;-44
2021/05/20 10:01:04;;;;;;;1.03;1.00;;;20.70;42.60;;;;;;5012221;28;21030;-44
2021/05/20 10:03:34;;;;;;;0.90;0.80;;;20.70;42.10;;;;;;5008452;28;20197;-44
2021/05/20 10:06:00;;;;;;;1.40;1.00;;;20.60;42.80;;;;;;5014839;28;20445;-45
2021/05/20 10:08:32;;;;;;;1.40;0.90;;;20.60;43.10;;;;;;5010205;28;20899;-47
2021/05/20 10:11:03;;;;;;;1.00;1.00;;;20.80;43.80;;;;;;5011098;28;20281;-44
2021/05/20 10:13:30;;;;;;;1.10;1.00;;;21.10;43.20;;;;;;5010828;28;20502;-44
2021/05/20 10:15:57;;;;;;;1.00;1.00;;;21.30;43.60;;;;;;5016145;28;20452;-43
2021/05/20 10:18:27;;;;;;;1.17;0.80;;;21.70;42.90;;;;;;5019040;28;20441;-44
2021/05/20 10:20:56;;;;;;;1.40;0.93;;;22.10;42.10;;;;;;5012278;28;20831;-44
2021/05/20 10:23:23;;;;;;;1.60;1.17;;;22.30;40.60;;;;;;5011227;28;20440;-45
2021/05/20 10:25:51;;;;;;;1.30;1.20;;;22.30;40.70;;;;;;5010393;28;20473;-43
2021/05/20 10:28:18;;;;;;;2.00;0.90;;;22.40;40.90;;;;;;5013359;28;20432;-43
2021/05/20 10:30:47;;;;;;;1.80;0.97;;;22.50;40.80;;;;;;5009928;28;20441;-45
2021/05/20 10:33:15;;;;;;;1.60;0.80;;;22.60;40.30;;;;;;5009344;28;20966;-44
2021/05/20 10:35:49;;;;;;;1.10;1.10;;;22.80;40.10;;;;;;5011860;28;20448;-44
2021/05/20 10:38:28;;;;;;;1.07;1.07;;;23.00;37.90;;;;;;5008625;28;20476;-44
2021/05/20 10:41:19;;;;;;;0.80;0.80;;;23.00;38.50;;;;;;4992712;28;20500;-46
2021/05/20 10:44:08;;;;;;;0.80;0.80;;;22.90;37.80;;;;;;5009123;28;20449;-44
2021/05/20 10:47:01;;;;;;;1.70;1.00;;;22.80;38.00;;;;;;5011223;28;20440;-43
2021/05/20 10:49:45;;;;;;;1.53;1.00;;;22.90;39.20;;;;;;5006428;28;21266;-44
2021/05/20 10:52:37;;;;;;;0.97;0.80;;;23.20;39.50;;;;;;5009686;28;20441;-49
2021/05/20 10:55:05;;;;;;;2.30;1.43;;;23.60;37.80;;;;;;4997771;28;20476;-49
2021/05/20 10:58:03;;;;;;;3.80;1.07;;;23.90;37.90;;;;;;4997626;28;20449;-46
2021/05/20 11:00:40;;;;;;;1.50;1.40;;;24.30;36.40;;;;;;4975335;28;20500;-45
2021/05/20 11:03:09;;;;;;;1.37;0.93;;;24.00;35.20;;;;;;5008205;28;20445;-46
2021/05/20 11:05:41;;;;;;;1.40;1.30;;;23.90;36.20;;;;;;5010275;28;20480;-45
2021/05/20 11:08:11;;;;;;;1.70;0.97;;;23.90;36.50;;;;;;5003508;28;20463;-44
2021/05/20 11:10:37;;;;;;;1.47;1.37;;;24.00;36.50;;;;;;5011754;28;20441;-45
2021/05/20 11:13:05;;;;;;;0.70;0.70;;;24.00;35.90;;;;;;5009538;28;20548;-44
2021/05/20 11:15:31;;;;;;;1.40;0.73;;;24.00;36.00;;;;;;5010402;28;21275;-48
2021/05/20 11:18:33;;;;;;;1.17;0.70;;;24.20;35.20;;;;;;5011159;28;20437;-44
2021/05/20 11:20:58;;;;;;;0.97;0.87;;;24.40;35.20;;;;;;5007736;28;20312;-48
2021/05/20 11:23:25;;;;;;;0.80;0.80;;;24.60;34.80;;;;;;5010113;28;20627;-45
2021/05/20 11:26:12;;;;;;;1.40;1.27;;;24.80;35.50;;;;;;5009717;28;20222;-45
2021/05/20 11:28:39;;;;;;;0.97;0.80;;;24.90;34.10;;;;;;5003748;28;20480;-49
2021/05/20 11:31:05;;;;;;;0.93;0.90;;;25.10;33.40;;;;;;5005079;28;20917;-49
2021/05/20 11:33:36;;;;;;;1.30;0.83;;;25.10;33.90;;;;;;4992241;28;20484;-50
2021/05/20 11:38:28;;;;;;;1.03;0.90;;;25.00;32.90;;;;;;5006422;28;20551;-47
2021/05/20 11:40:55;;;;;;;0.70;0.70;;;25.00;33.10;;;;;;5010934;28;20669;-48
2021/05/20 11:43:30;;;;;;;0.80;0.80;;;24.90;31.70;;;;;;5001512;28;20445;-45
2021/05/20 11:45:57;;;;;;;3.03;0.87;;;24.80;32.30;;;;;;5009976;28;20451;-50
2021/05/20 11:48:22;;;;;;;0.70;0.70;;;24.80;31.90;;;;;;5011027;28;20445;-47
2021/05/20 11:50:53;;;;;;;2.13;0.83;;;24.80;31.20;;;;;;5010389;28;20441;-50
2021/05/20 11:53:19;;;;;;;1.00;1.00;;;24.80;33.10;;;;;;5006393;28;20198;-47
2021/05/20 11:55:46;;;;;;;1.23;0.90;;;24.60;33.60;;;;;;5008011;28;20950;-49
2021/05/20 11:58:13;;;;;;;0.90;0.90;;;24.50;33.30;;;;;;5008324;28;20440;-48
2021/05/20 12:00:39;;;;;;;0.80;0.80;;;24.50;33.90;;;;;;5011191;28;20523;-50
2021/05/20 12:03:05;;;;;;;0.83;0.77;;;24.50;34.10;;;;;;5007687;28;20445;-46
2021/05/20 12:05:30;;;;;;;3.03;1.03;;;24.60;34.70;;;;;;5012661;28;20208;-49
2021/05/20 12:07:56;;;;;;;1.00;0.90;;;24.70;34.20;;;;;;5012482;28;20544;-49
2021/05/20 12:10:23;;;;;;;1.60;1.03;;;24.70;33.60;;;;;;5010780;28;20190;-50
2021/05/20 12:12:59;;;;;;;1.30;0.90;;;24.60;33.30;;;;;;5010137;28;20233;-45
2021/05/20 12:15:27;;;;;;;0.70;0.70;;;24.60;33.60;;;;;;5026351;28;20531;-47
2021/05/20 12:17:56;;;;;;;1.10;1.00;;;24.50;34.00;;;;;;5009274;28;20473;-48
2021/05/20 12:20:23;;;;;;;3.30;1.27;;;24.50;33.80;;;;;;4998879;28;20503;-47
2021/05/20 12:22:50;;;;;;;2.40;1.00;;;24.40;33.40;;;;;;5012110;28;20840;-48
2021/05/20 12:25:17;;;;;;;1.60;0.90;;;24.20;33.60;;;;;;5000560;28;20429;-45
2021/05/20 12:27:45;;;;;;;1.20;1.10;;;24.10;34.00;;;;;;5008935;28;20564;-45
2021/05/20 12:30:29;;;;;;;0.80;0.80;;;23.90;34.20;;;;;;5007860;28;20507;-47
2021/05/20 12:33:00;;;;;;;0.80;0.80;;;23.60;35.40;;;;;;5007160;28;20448;-45
2021/05/20 12:35:33;;;;;;;2.10;1.10;;;23.70;35.20;;;;;;5010125;28;20445;-44
2021/05/20 12:38:08;;;;;;;1.00;0.83;;;23.70;35.00;;;;;;5000950;28;20472;-46
2021/05/20 12:40:38;;;;;;;0.90;0.80;;;23.70;35.00;;;;;;5013027;28;20575;-45
2021/05/20 12:43:05;;;;;;;0.70;0.70;;;23.80;34.80;;;;;;5001409;28;20480;-47
2021/05/20 12:45:33;;;;;;;1.00;1.00;;;23.70;35.00;;;;;;4994448;28;20454;-44
2021/05/20 12:47:59;;;;;;;1.47;1.10;;;23.60;35.50;;;;;;5001559;28;20805;-48
2021/05/20 12:50:35;;;;;;;2.07;0.97;;;23.70;35.20;;;;;;5011476;28;20432;-45
2021/05/20 12:53:01;;;;;;;1.80;0.80;;;23.70;34.00;;;;;;5011916;28;20193;-45
2021/05/20 12:55:35;;;;;;;1.30;0.70;;;23.60;34.30;;;;;;5012875;28;20447;-45
2021/05/20 12:58:02;;;;;;;6.60;0.80;;;23.70;34.30;;;;;;5000839;28;20527;-45
2021/05/20 13:00:29;;;;;;;2.23;0.97;;;23.60;34.20;;;;;;5006874;28;20899;-45